sensor_id;sensor_type;location;lat;lon;timestamp;P1;durP1;ratioP1;P2;durP2;ratioP2
46322;SDS011;32044;52.386;13.278;2023-02-11T00:00:45;70.18;;;34.70;;
46322;SDS011;32044;52.386;13.278;2023-02-11T00:03:12;71.40;;;35.67;;
46322;SDS011;32044;52.386;13.278;2023-02-11T00:05:40;69.95;;;33.00;;
46322;SDS011;32044;52.386;13.278;2023-02-11T00:08:07;76.97;;;36.70;;
46322;SDS011;32044;52.386;13.278;2023-02-11T00:10:35;65.05;;;32.03;;
46322;SDS011;32044;52.386;13.278;2023-02-11T00:13:04;71.10;;;34.40;;
46322;SDS011;32044;52.386;13.278;2023-02-11T00:15:31;70.50;;;35.83;;
46322;SDS011;32044;52.386;13.278;2023-02-11T00:17:59;75.50;;;35.03;;
46322;SDS011;32044;52.386;13.278;2023-02-11T00:20:26;72.30;;;35.75;;
46322;SDS011;32044;52.386;13.278;2023-02-11T00:22:54;64.15;;;33.25;;
46322;SDS011;32044;52.386;13.278;2023-02-11T00:25:21;70.85;;;34.55;;
46322;SDS011;32044;52.386;13.278;2023-02-11T00:27:49;67.78;;;34.90;;
46322;SDS011;32044;52.386;13.278;2023-02-11T00:30:17;71.65;;;37.97;;
46322;SDS011;32044;52.386;13.278;2023-02-11T00:32:46;70.18;;;36.30;;
46322;SDS011;32044;52.386;13.278;2023-02-11T00:35:13;75.35;;;36.10;;
46322;SDS011;32044;52.386;13.278;2023-02-11T00:37:41;64.88;;;35.33;;
46322;SDS011;32044;52.386;13.278;2023-02-11T00:40:09;73.18;;;34.47;;
46322;SDS011;32044;52.386;13.278;2023-02-11T00:42:37;78.55;;;36.22;;
46322;SDS011;32044;52.386;13.278;2023-02-11T00:45:06;71.60;;;34.17;;
46322;SDS011;32044;52.386;13.278;2023-02-11T00:47:36;75.68;;;36.05;;
46322;SDS011;32044;52.386;13.278;2023-02-11T00:50:04;70.88;;;34.35;;
46322;SDS011;32044;52.386;13.278;2023-02-11T00:52:32;67.15;;;34.53;;
46322;SDS011;32044;52.386;13.278;2023-02-11T00:55:00;69.88;;;35.60;;
46322;SDS011;32044;52.386;13.278;2023-02-11T00:57:27;69.05;;;34.15;;
46322;SDS011;32044;52.386;13.278;2023-02-11T00:59:55;77.28;;;36.13;;
46322;SDS011;32044;52.386;13.278;2023-02-11T01:02:22;69.10;;;34.63;;
46322;SDS011;32044;52.386;13.278;2023-02-11T01:04:51;72.75;;;34.65;;
46322;SDS011;32044;52.386;13.278;2023-02-11T01:07:19;72.82;;;34.13;;
46322;SDS011;32044;52.386;13.278;2023-02-11T01:09:47;66.47;;;32.67;;
46322;SDS011;32044;52.386;13.278;2023-02-11T01:12:14;71.72;;;34.20;;
46322;SDS011;32044;52.386;13.278;2023-02-11T01:14:41;75.32;;;34.97;;
46322;SDS011;32044;52.386;13.278;2023-02-11T01:17:10;65.47;;;33.45;;
46322;SDS011;32044;52.386;13.278;2023-02-11T01:19:37;69.90;;;34.67;;
46322;SDS011;32044;52.386;13.278;2023-02-11T01:22:06;68.72;;;33.50;;
46322;SDS011;32044;52.386;13.278;2023-02-11T01:24:34;67.95;;;33.65;;
46322;SDS011;32044;52.386;13.278;2023-02-11T01:27:02;70.43;;;34.00;;
46322;SDS011;32044;52.386;13.278;2023-02-11T01:29:29;62.65;;;32.85;;
46322;SDS011;32044;52.386;13.278;2023-02-11T01:31:57;68.18;;;34.92;;
46322;SDS011;32044;52.386;13.278;2023-02-11T01:34:24;72.45;;;34.60;;
46322;SDS011;32044;52.386;13.278;2023-02-11T01:36:55;70.43;;;35.35;;
46322;SDS011;32044;52.386;13.278;2023-02-11T01:39:25;65.40;;;33.72;;
46322;SDS011;32044;52.386;13.278;2023-02-11T01:41:52;67.45;;;35.20;;
46322;SDS011;32044;52.386;13.278;2023-02-11T01:44:22;63.40;;;33.45;;
46322;SDS011;32044;52.386;13.278;2023-02-11T01:46:50;70.68;;;33.45;;
46322;SDS011;32044;52.386;13.278;2023-02-11T01:49:20;66.63;;;34.15;;
46322;SDS011;32044;52.386;13.278;2023-02-11T01:51:50;51.35;;;26.02;;
46322;SDS011;32044;52.386;13.278;2023-02-11T01:54:23;70.50;;;35.92;;
46322;SDS011;32044;52.386;13.278;2023-02-11T01:57:11;69.03;;;33.85;;
46322;SDS011;32044;52.386;13.278;2023-02-11T01:59:53;65.85;;;33.60;;
46322;SDS011;32044;52.386;13.278;2023-02-11T02:02:26;59.75;;;31.83;;
46322;SDS011;32044;52.386;13.278;2023-02-11T02:04:59;68.47;;;33.03;;
46322;SDS011;32044;52.386;13.278;2023-02-11T02:07:32;71.13;;;36.03;;
46322;SDS011;32044;52.386;13.278;2023-02-11T02:10:04;68.28;;;34.95;;
46322;SDS011;32044;52.386;13.278;2023-02-11T02:12:35;67.32;;;33.72;;
46322;SDS011;32044;52.386;13.278;2023-02-11T02:15:22;65.30;;;33.92;;
46322;SDS011;32044;52.386;13.278;2023-02-11T02:27:03;68.68;;;35.45;;
46322;SDS011;32044;52.386;13.278;2023-02-11T02:32:52;68.43;;;35.67;;
46322;SDS011;32044;52.386;13.278;2023-02-11T02:35:26;67.00;;;33.05;;
46322;SDS011;32044;52.386;13.278;2023-02-11T02:37:59;72.13;;;35.42;;
46322;SDS011;32044;52.386;13.278;2023-02-11T02:40:28;48.93;;;27.67;;
46322;SDS011;32044;52.386;13.278;2023-02-11T02:42:58;69.78;;;34.85;;
46322;SDS011;32044;52.386;13.278;2023-02-11T02:45:27;66.30;;;34.47;;
46322;SDS011;32044;52.386;13.278;2023-02-11T02:47:56;68.30;;;34.90;;
46322;SDS011;32044;52.386;13.278;2023-02-11T02:50:25;63.70;;;34.75;;
46322;SDS011;32044;52.386;13.278;2023-02-11T02:52:59;67.65;;;34.05;;
46322;SDS011;32044;52.386;13.278;2023-02-11T02:55:37;70.45;;;35.35;;
46322;SDS011;32044;52.386;13.278;2023-02-11T03:01:07;66.75;;;35.40;;
46322;SDS011;32044;52.386;13.278;2023-02-11T03:03:42;63.58;;;34.33;;
46322;SDS011;32044;52.386;13.278;2023-02-11T03:06:16;65.47;;;34.50;;
46322;SDS011;32044;52.386;13.278;2023-02-11T03:08:48;66.97;;;35.47;;
46322;SDS011;32044;52.386;13.278;2023-02-11T03:11:18;68.43;;;37.25;;
46322;SDS011;32044;52.386;13.278;2023-02-11T03:13:46;67.40;;;36.38;;
46322;SDS011;32044;52.386;13.278;2023-02-11T03:16:16;70.15;;;35.90;;
46322;SDS011;32044;52.386;13.278;2023-02-11T03:18:48;63.33;;;35.10;;
46322;SDS011;32044;52.386;13.278;2023-02-11T03:21:17;73.18;;;37.35;;
46322;SDS011;32044;52.386;13.278;2023-02-11T03:23:48;76.13;;;36.88;;
46322;SDS011;32044;52.386;13.278;2023-02-11T03:26:20;63.97;;;36.15;;
46322;SDS011;32044;52.386;13.278;2023-02-11T03:28:50;66.93;;;36.05;;
46322;SDS011;32044;52.386;13.278;2023-02-11T03:31:26;71.20;;;36.08;;
46322;SDS011;32044;52.386;13.278;2023-02-11T03:33:58;74.10;;;36.92;;
46322;SDS011;32044;52.386;13.278;2023-02-11T03:36:31;69.70;;;35.35;;
46322;SDS011;32044;52.386;13.278;2023-02-11T03:39:00;67.57;;;35.42;;
46322;SDS011;32044;52.386;13.278;2023-02-11T03:41:29;68.32;;;37.00;;
46322;SDS011;32044;52.386;13.278;2023-02-11T03:43:57;68.63;;;35.95;;
46322;SDS011;32044;52.386;13.278;2023-02-11T03:46:26;67.32;;;35.67;;
46322;SDS011;32044;52.386;13.278;2023-02-11T03:49:00;74.18;;;38.15;;
46322;SDS011;32044;52.386;13.278;2023-02-11T03:51:29;75.85;;;37.47;;
46322;SDS011;32044;52.386;13.278;2023-02-11T03:53:57;74.95;;;38.90;;
46322;SDS011;32044;52.386;13.278;2023-02-11T03:56:27;73.85;;;39.17;;
46322;SDS011;32044;52.386;13.278;2023-02-11T03:58:57;70.23;;;36.60;;
46322;SDS011;32044;52.386;13.278;2023-02-11T04:01:24;71.18;;;38.60;;
46322;SDS011;32044;52.386;13.278;2023-02-11T04:03:52;73.47;;;39.35;;
46322;SDS011;32044;52.386;13.278;2023-02-11T04:06:21;73.38;;;39.15;;
46322;SDS011;32044;52.386;13.278;2023-02-11T04:08:48;71.40;;;37.90;;
46322;SDS011;32044;52.386;13.278;2023-02-11T04:11:16;76.63;;;38.28;;
46322;SDS011;32044;52.386;13.278;2023-02-11T04:13:43;74.72;;;38.70;;
46322;SDS011;32044;52.386;13.278;2023-02-11T04:16:11;84.07;;;40.05;;
46322;SDS011;32044;52.386;13.278;2023-02-11T04:18:38;77.30;;;41.78;;
46322;SDS011;32044;52.386;13.278;2023-02-11T04:21:06;82.25;;;41.67;;
46322;SDS011;32044;52.386;13.278;2023-02-11T04:23:35;79.32;;;40.83;;
46322;SDS011;32044;52.386;13.278;2023-02-11T04:26:03;82.57;;;42.20;;
46322;SDS011;32044;52.386;13.278;2023-02-11T04:28:31;83.20;;;42.90;;
46322;SDS011;32044;52.386;13.278;2023-02-11T04:30:58;79.45;;;42.42;;
46322;SDS011;32044;52.386;13.278;2023-02-11T04:33:26;77.45;;;41.53;;
46322;SDS011;32044;52.386;13.278;2023-02-11T04:35:54;78.93;;;41.58;;
46322;SDS011;32044;52.386;13.278;2023-02-11T04:38:21;80.63;;;43.58;;
46322;SDS011;32044;52.386;13.278;2023-02-11T04:40:51;81.13;;;43.45;;
46322;SDS011;32044;52.386;13.278;2023-02-11T04:43:18;80.53;;;42.97;;
46322;SDS011;32044;52.386;13.278;2023-02-11T04:45:46;75.55;;;43.03;;
46322;SDS011;32044;52.386;13.278;2023-02-11T04:48:14;81.22;;;44.55;;
46322;SDS011;32044;52.386;13.278;2023-02-11T04:50:42;77.55;;;43.17;;
46322;SDS011;32044;52.386;13.278;2023-02-11T04:53:09;83.10;;;44.85;;
46322;SDS011;32044;52.386;13.278;2023-02-11T04:55:37;84.28;;;43.05;;
46322;SDS011;32044;52.386;13.278;2023-02-11T04:58:05;82.50;;;43.35;;
46322;SDS011;32044;52.386;13.278;2023-02-11T05:00:33;78.03;;;43.78;;
46322;SDS011;32044;52.386;13.278;2023-02-11T05:03:00;77.97;;;42.10;;
46322;SDS011;32044;52.386;13.278;2023-02-11T05:05:28;83.15;;;44.55;;
46322;SDS011;32044;52.386;13.278;2023-02-11T05:07:55;79.70;;;44.25;;
46322;SDS011;32044;52.386;13.278;2023-02-11T05:10:23;86.28;;;45.00;;
46322;SDS011;32044;52.386;13.278;2023-02-11T05:12:50;87.80;;;45.65;;
46322;SDS011;32044;52.386;13.278;2023-02-11T05:15:22;85.68;;;44.17;;
46322;SDS011;32044;52.386;13.278;2023-02-11T05:17:50;81.55;;;44.65;;
46322;SDS011;32044;52.386;13.278;2023-02-11T05:20:17;87.20;;;46.35;;
46322;SDS011;32044;52.386;13.278;2023-02-11T05:22:45;98.25;;;48.85;;
46322;SDS011;32044;52.386;13.278;2023-02-11T05:25:12;87.60;;;45.40;;
46322;SDS011;32044;52.386;13.278;2023-02-11T05:27:40;93.18;;;48.67;;
46322;SDS011;32044;52.386;13.278;2023-02-11T05:30:09;90.05;;;48.22;;
46322;SDS011;32044;52.386;13.278;2023-02-11T05:32:38;92.07;;;46.35;;
46322;SDS011;32044;52.386;13.278;2023-02-11T05:35:06;84.13;;;45.47;;
46322;SDS011;32044;52.386;13.278;2023-02-11T05:37:34;85.20;;;47.65;;
46322;SDS011;32044;52.386;13.278;2023-02-11T05:40:01;86.00;;;47.08;;
46322;SDS011;32044;52.386;13.278;2023-02-11T05:42:29;86.68;;;47.88;;
46322;SDS011;32044;52.386;13.278;2023-02-11T05:44:57;92.18;;;47.15;;
46322;SDS011;32044;52.386;13.278;2023-02-11T05:47:24;94.22;;;49.80;;
46322;SDS011;32044;52.386;13.278;2023-02-11T05:49:53;91.63;;;48.70;;
46322;SDS011;32044;52.386;13.278;2023-02-11T05:52:21;91.72;;;46.28;;
46322;SDS011;32044;52.386;13.278;2023-02-11T05:54:49;97.05;;;49.03;;
46322;SDS011;32044;52.386;13.278;2023-02-11T05:57:17;98.25;;;51.00;;
46322;SDS011;32044;52.386;13.278;2023-02-11T05:59:44;90.45;;;48.65;;
46322;SDS011;32044;52.386;13.278;2023-02-11T06:02:12;102.70;;;51.17;;
46322;SDS011;32044;52.386;13.278;2023-02-11T06:04:39;99.43;;;50.47;;
46322;SDS011;32044;52.386;13.278;2023-02-11T06:07:08;100.28;;;52.08;;
46322;SDS011;32044;52.386;13.278;2023-02-11T06:09:36;105.57;;;51.38;;
46322;SDS011;32044;52.386;13.278;2023-02-11T06:12:03;94.50;;;50.88;;
46322;SDS011;32044;52.386;13.278;2023-02-11T06:14:31;93.50;;;50.25;;
46322;SDS011;32044;52.386;13.278;2023-02-11T06:16:59;102.30;;;52.47;;
46322;SDS011;32044;52.386;13.278;2023-02-11T06:19:27;101.63;;;51.38;;
46322;SDS011;32044;52.386;13.278;2023-02-11T06:21:54;101.25;;;50.85;;
46322;SDS011;32044;52.386;13.278;2023-02-11T06:24:23;97.50;;;49.78;;
46322;SDS011;32044;52.386;13.278;2023-02-11T06:27:11;104.22;;;52.63;;
46322;SDS011;32044;52.386;13.278;2023-02-11T06:29:38;107.10;;;52.60;;
46322;SDS011;32044;52.386;13.278;2023-02-11T06:32:06;100.05;;;54.22;;
46322;SDS011;32044;52.386;13.278;2023-02-11T06:34:48;94.93;;;51.08;;
46322;SDS011;32044;52.386;13.278;2023-02-11T06:37:16;99.60;;;51.63;;
46322;SDS011;32044;52.386;13.278;2023-02-11T06:39:44;103.50;;;55.33;;
46322;SDS011;32044;52.386;13.278;2023-02-11T06:42:12;102.05;;;51.25;;
46322;SDS011;32044;52.386;13.278;2023-02-11T06:44:39;101.18;;;52.60;;
46322;SDS011;32044;52.386;13.278;2023-02-11T06:47:07;104.63;;;53.53;;
46322;SDS011;32044;52.386;13.278;2023-02-11T06:49:34;113.18;;;54.15;;
46322;SDS011;32044;52.386;13.278;2023-02-11T06:52:02;107.38;;;55.47;;
46322;SDS011;32044;52.386;13.278;2023-02-11T06:54:30;117.60;;;56.35;;
46322;SDS011;32044;52.386;13.278;2023-02-11T06:56:58;103.80;;;54.35;;
46322;SDS011;32044;52.386;13.278;2023-02-11T06:59:26;108.28;;;57.35;;
46322;SDS011;32044;52.386;13.278;2023-02-11T07:01:53;110.05;;;56.90;;
46322;SDS011;32044;52.386;13.278;2023-02-11T07:04:21;115.47;;;55.28;;
46322;SDS011;32044;52.386;13.278;2023-02-11T07:06:49;115.28;;;54.28;;
46322;SDS011;32044;52.386;13.278;2023-02-11T07:09:16;113.18;;;57.00;;
46322;SDS011;32044;52.386;13.278;2023-02-11T07:11:43;106.40;;;54.42;;
46322;SDS011;32044;52.386;13.278;2023-02-11T07:14:12;111.88;;;56.15;;
46322;SDS011;32044;52.386;13.278;2023-02-11T07:16:40;112.70;;;56.60;;
46322;SDS011;32044;52.386;13.278;2023-02-11T07:19:08;108.45;;;55.92;;
46322;SDS011;32044;52.386;13.278;2023-02-11T07:21:35;117.68;;;56.92;;
46322;SDS011;32044;52.386;13.278;2023-02-11T07:24:05;105.53;;;54.10;;
46322;SDS011;32044;52.386;13.278;2023-02-11T07:26:36;111.97;;;56.72;;
46322;SDS011;32044;52.386;13.278;2023-02-11T07:29:03;108.22;;;54.63;;
46322;SDS011;32044;52.386;13.278;2023-02-11T07:31:32;107.00;;;54.85;;
46322;SDS011;32044;52.386;13.278;2023-02-11T07:34:00;105.68;;;55.28;;
46322;SDS011;32044;52.386;13.278;2023-02-11T07:36:29;112.75;;;54.78;;
46322;SDS011;32044;52.386;13.278;2023-02-11T07:38:57;114.30;;;54.83;;
46322;SDS011;32044;52.386;13.278;2023-02-11T07:41:25;103.50;;;55.58;;
46322;SDS011;32044;52.386;13.278;2023-02-11T07:43:53;103.35;;;54.17;;
46322;SDS011;32044;52.386;13.278;2023-02-11T07:46:23;108.05;;;55.20;;
46322;SDS011;32044;52.386;13.278;2023-02-11T07:48:53;103.28;;;52.65;;
46322;SDS011;32044;52.386;13.278;2023-02-11T07:51:21;105.53;;;54.45;;
46322;SDS011;32044;52.386;13.278;2023-02-11T07:53:50;96.45;;;53.15;;
46322;SDS011;32044;52.386;13.278;2023-02-11T07:56:19;102.13;;;53.33;;
46322;SDS011;32044;52.386;13.278;2023-02-11T07:58:47;108.93;;;54.05;;
46322;SDS011;32044;52.386;13.278;2023-02-11T08:01:15;107.05;;;50.47;;
46322;SDS011;32044;52.386;13.278;2023-02-11T08:03:44;99.10;;;51.78;;
46322;SDS011;32044;52.386;13.278;2023-02-11T08:06:13;99.40;;;51.65;;
46322;SDS011;32044;52.386;13.278;2023-02-11T08:08:42;99.05;;;51.58;;
46322;SDS011;32044;52.386;13.278;2023-02-11T08:11:11;97.22;;;51.15;;
46322;SDS011;32044;52.386;13.278;2023-02-11T08:13:40;90.97;;;48.72;;
46322;SDS011;32044;52.386;13.278;2023-02-11T08:16:08;96.57;;;52.40;;
46322;SDS011;32044;52.386;13.278;2023-02-11T08:18:36;88.28;;;48.47;;
46322;SDS011;32044;52.386;13.278;2023-02-11T08:21:04;100.70;;;51.65;;
46322;SDS011;32044;52.386;13.278;2023-02-11T08:23:34;91.32;;;48.50;;
46322;SDS011;32044;52.386;13.278;2023-02-11T08:26:02;92.10;;;49.67;;
46322;SDS011;32044;52.386;13.278;2023-02-11T08:28:30;96.45;;;49.95;;
46322;SDS011;32044;52.386;13.278;2023-02-11T08:31:03;98.22;;;47.83;;
46322;SDS011;32044;52.386;13.278;2023-02-11T08:33:32;90.65;;;48.85;;
46322;SDS011;32044;52.386;13.278;2023-02-11T08:35:59;81.43;;;43.67;;
46322;SDS011;32044;52.386;13.278;2023-02-11T08:38:27;89.97;;;45.83;;
46322;SDS011;32044;52.386;13.278;2023-02-11T08:40:57;83.05;;;44.40;;
46322;SDS011;32044;52.386;13.278;2023-02-11T08:43:25;84.82;;;45.30;;
46322;SDS011;32044;52.386;13.278;2023-02-11T08:45:53;88.30;;;46.88;;
46322;SDS011;32044;52.386;13.278;2023-02-11T08:48:20;95.97;;;46.20;;
46322;SDS011;32044;52.386;13.278;2023-02-11T08:50:48;88.25;;;48.08;;
46322;SDS011;32044;52.386;13.278;2023-02-11T08:53:15;89.63;;;46.95;;
46322;SDS011;32044;52.386;13.278;2023-02-11T08:55:46;88.95;;;47.67;;
46322;SDS011;32044;52.386;13.278;2023-02-11T08:58:16;84.07;;;46.38;;
46322;SDS011;32044;52.386;13.278;2023-02-11T09:00:44;87.38;;;47.58;;
46322;SDS011;32044;52.386;13.278;2023-02-11T09:03:12;87.28;;;46.38;;
46322;SDS011;32044;52.386;13.278;2023-02-11T09:05:40;81.57;;;45.53;;
46322;SDS011;32044;52.386;13.278;2023-02-11T09:08:09;88.85;;;46.53;;
46322;SDS011;32044;52.386;13.278;2023-02-11T09:10:36;88.53;;;47.25;;
46322;SDS011;32044;52.386;13.278;2023-02-11T09:13:04;94.18;;;47.53;;
46322;SDS011;32044;52.386;13.278;2023-02-11T09:15:33;89.63;;;46.15;;
46322;SDS011;32044;52.386;13.278;2023-02-11T09:18:02;92.05;;;47.95;;
46322;SDS011;32044;52.386;13.278;2023-02-11T09:20:31;84.18;;;45.05;;
46322;SDS011;32044;52.386;13.278;2023-02-11T09:22:58;77.18;;;43.70;;
46322;SDS011;32044;52.386;13.278;2023-02-11T09:25:26;86.65;;;46.25;;
46322;SDS011;32044;52.386;13.278;2023-02-11T09:27:53;78.35;;;42.63;;
46322;SDS011;32044;52.386;13.278;2023-02-11T09:30:21;85.43;;;47.80;;
46322;SDS011;32044;52.386;13.278;2023-02-11T09:32:50;85.97;;;44.53;;
46322;SDS011;32044;52.386;13.278;2023-02-11T09:35:17;80.85;;;44.47;;
46322;SDS011;32044;52.386;13.278;2023-02-11T09:37:46;78.55;;;42.88;;
46322;SDS011;32044;52.386;13.278;2023-02-11T09:40:13;78.88;;;43.55;;
46322;SDS011;32044;52.386;13.278;2023-02-11T09:42:43;83.88;;;44.85;;
46322;SDS011;32044;52.386;13.278;2023-02-11T09:45:14;76.22;;;42.42;;
46322;SDS011;32044;52.386;13.278;2023-02-11T09:50:17;75.88;;;39.95;;
46322;SDS011;32044;52.386;13.278;2023-02-11T09:52:50;78.10;;;43.00;;
46322;SDS011;32044;52.386;13.278;2023-02-11T09:57:48;75.68;;;40.28;;
46322;SDS011;32044;52.386;13.278;2023-02-11T10:00:18;73.03;;;40.08;;
46322;SDS011;32044;52.386;13.278;2023-02-11T10:02:55;77.70;;;40.95;;
46322;SDS011;32044;52.386;13.278;2023-02-11T10:05:32;77.63;;;41.50;;
46322;SDS011;32044;52.386;13.278;2023-02-11T10:08:11;60.90;;;32.17;;
46322;SDS011;32044;52.386;13.278;2023-02-11T10:10:43;75.93;;;43.40;;
46322;SDS011;32044;52.386;13.278;2023-02-11T10:13:29;74.95;;;40.90;;
46322;SDS011;32044;52.386;13.278;2023-02-11T10:16:04;79.70;;;41.65;;
46322;SDS011;32044;52.386;13.278;2023-02-11T10:18:42;77.07;;;40.72;;
46322;SDS011;32044;52.386;13.278;2023-02-11T10:21:18;79.72;;;40.67;;
46322;SDS011;32044;52.386;13.278;2023-02-11T10:23:51;77.45;;;41.33;;
46322;SDS011;32044;52.386;13.278;2023-02-11T10:26:21;73.55;;;41.38;;
46322;SDS011;32044;52.386;13.278;2023-02-11T10:28:49;71.60;;;42.28;;
46322;SDS011;32044;52.386;13.278;2023-02-11T10:31:20;70.97;;;42.60;;
46322;SDS011;32044;52.386;13.278;2023-02-11T10:33:52;82.45;;;43.22;;
46322;SDS011;32044;52.386;13.278;2023-02-11T10:36:27;70.82;;;41.70;;
46322;SDS011;32044;52.386;13.278;2023-02-11T10:38:55;77.55;;;41.28;;
46322;SDS011;32044;52.386;13.278;2023-02-11T10:41:25;77.15;;;43.67;;
46322;SDS011;32044;52.386;13.278;2023-02-11T10:43:57;75.95;;;42.97;;
46322;SDS011;32044;52.386;13.278;2023-02-11T10:46:28;79.90;;;44.33;;
46322;SDS011;32044;52.386;13.278;2023-02-11T10:51:27;77.63;;;39.92;;
46322;SDS011;32044;52.386;13.278;2023-02-11T10:54:08;76.00;;;41.60;;
46322;SDS011;32044;52.386;13.278;2023-02-11T10:56:40;78.03;;;41.95;;
46322;SDS011;32044;52.386;13.278;2023-02-11T10:59:13;67.35;;;41.08;;
46322;SDS011;32044;52.386;13.278;2023-02-11T11:01:47;77.80;;;43.42;;
46322;SDS011;32044;52.386;13.278;2023-02-11T11:04:25;75.28;;;40.15;;
46322;SDS011;32044;52.386;13.278;2023-02-11T11:07:15;71.97;;;39.80;;
46322;SDS011;32044;52.386;13.278;2023-02-11T11:09:49;55.00;;;31.37;;
46322;SDS011;32044;52.386;13.278;2023-02-11T11:12:25;70.85;;;39.20;;
46322;SDS011;32044;52.386;13.278;2023-02-11T11:14:54;76.13;;;41.22;;
46322;SDS011;32044;52.386;13.278;2023-02-11T11:17:23;73.18;;;41.63;;
46322;SDS011;32044;52.386;13.278;2023-02-11T11:20:02;77.50;;;39.78;;
46322;SDS011;32044;52.386;13.278;2023-02-11T11:22:41;75.18;;;39.65;;
46322;SDS011;32044;52.386;13.278;2023-02-11T11:25:20;76.53;;;41.83;;
46322;SDS011;32044;52.386;13.278;2023-02-11T11:27:49;64.43;;;37.83;;
46322;SDS011;32044;52.386;13.278;2023-02-11T11:30:18;72.95;;;39.05;;
46322;SDS011;32044;52.386;13.278;2023-02-11T11:32:46;78.97;;;41.53;;
46322;SDS011;32044;52.386;13.278;2023-02-11T11:35:21;73.25;;;41.22;;
46322;SDS011;32044;52.386;13.278;2023-02-11T11:37:55;74.78;;;40.80;;
46322;SDS011;32044;52.386;13.278;2023-02-11T11:40:28;79.43;;;43.67;;
46322;SDS011;32044;52.386;13.278;2023-02-11T11:43:03;72.72;;;38.35;;
46322;SDS011;32044;52.386;13.278;2023-02-11T11:45:33;74.47;;;42.47;;
46322;SDS011;32044;52.386;13.278;2023-02-11T11:48:01;79.25;;;42.05;;
46322;SDS011;32044;52.386;13.278;2023-02-11T11:50:33;71.78;;;41.20;;
46322;SDS011;32044;52.386;13.278;2023-02-11T11:53:04;78.47;;;40.88;;
46322;SDS011;32044;52.386;13.278;2023-02-11T11:55:36;75.13;;;41.33;;
46322;SDS011;32044;52.386;13.278;2023-02-11T11:58:09;68.80;;;40.03;;
46322;SDS011;32044;52.386;13.278;2023-02-11T12:00:40;80.63;;;40.83;;
46322;SDS011;32044;52.386;13.278;2023-02-11T12:06:16;73.13;;;39.72;;
46322;SDS011;32044;52.386;13.278;2023-02-11T12:08:51;70.47;;;39.45;;
46322;SDS011;32044;52.386;13.278;2023-02-11T12:11:24;76.50;;;39.80;;
46322;SDS011;32044;52.386;13.278;2023-02-11T12:14:02;73.85;;;37.63;;
46322;SDS011;32044;52.386;13.278;2023-02-11T12:16:40;74.15;;;39.15;;
46322;SDS011;32044;52.386;13.278;2023-02-11T12:19:16;72.53;;;37.58;;
46322;SDS011;32044;52.386;13.278;2023-02-11T12:21:54;69.35;;;37.90;;
46322;SDS011;32044;52.386;13.278;2023-02-11T12:24:28;68.60;;;36.58;;
46322;SDS011;32044;52.386;13.278;2023-02-11T12:27:03;66.65;;;36.13;;
46322;SDS011;32044;52.386;13.278;2023-02-11T12:29:35;73.53;;;36.78;;
46322;SDS011;32044;52.386;13.278;2023-02-11T12:32:09;61.83;;;35.15;;
46322;SDS011;32044;52.386;13.278;2023-02-11T12:34:52;59.30;;;34.65;;
46322;SDS011;32044;52.386;13.278;2023-02-11T12:37:31;58.13;;;33.78;;
46322;SDS011;32044;52.386;13.278;2023-02-11T12:40:08;60.80;;;33.55;;
46322;SDS011;32044;52.386;13.278;2023-02-11T12:42:45;56.80;;;33.30;;
46322;SDS011;32044;52.386;13.278;2023-02-11T12:46:02;62.05;;;33.65;;
46322;SDS011;32044;52.386;13.278;2023-02-11T12:48:46;52.55;;;30.38;;
46322;SDS011;32044;52.386;13.278;2023-02-11T12:51:22;58.53;;;32.92;;
46322;SDS011;32044;52.386;13.278;2023-02-11T12:54:02;58.20;;;30.67;;
46322;SDS011;32044;52.386;13.278;2023-02-11T12:56:42;52.13;;;29.20;;
46322;SDS011;32044;52.386;13.278;2023-02-11T12:59:13;52.50;;;31.08;;
46322;SDS011;32044;52.386;13.278;2023-02-11T13:01:44;57.35;;;30.77;;
46322;SDS011;32044;52.386;13.278;2023-02-11T13:04:15;52.38;;;30.02;;
46322;SDS011;32044;52.386;13.278;2023-02-11T13:06:48;51.58;;;29.95;;
46322;SDS011;32044;52.386;13.278;2023-02-11T13:09:19;53.38;;;29.08;;
46322;SDS011;32044;52.386;13.278;2023-02-11T13:11:50;52.85;;;30.30;;
46322;SDS011;32044;52.386;13.278;2023-02-11T13:14:22;51.22;;;28.40;;
46322;SDS011;32044;52.386;13.278;2023-02-11T13:16:51;46.75;;;27.48;;
46322;SDS011;32044;52.386;13.278;2023-02-11T13:19:20;50.15;;;28.60;;
46322;SDS011;32044;52.386;13.278;2023-02-11T13:21:55;53.65;;;28.88;;
46322;SDS011;32044;52.386;13.278;2023-02-11T13:24:29;45.08;;;27.67;;
46322;SDS011;32044;52.386;13.278;2023-02-11T13:27:06;44.45;;;27.75;;
46322;SDS011;32044;52.386;13.278;2023-02-11T13:29:39;50.85;;;29.75;;
46322;SDS011;32044;52.386;13.278;2023-02-11T13:32:15;45.55;;;27.23;;
46322;SDS011;32044;52.386;13.278;2023-02-11T13:34:56;43.22;;;26.30;;
46322;SDS011;32044;52.386;13.278;2023-02-11T13:37:25;51.17;;;27.65;;
46322;SDS011;32044;52.386;13.278;2023-02-11T13:39:57;49.17;;;29.77;;
46322;SDS011;32044;52.386;13.278;2023-02-11T13:42:27;50.38;;;27.73;;
46322;SDS011;32044;52.386;13.278;2023-02-11T13:44:55;50.13;;;27.27;;
46322;SDS011;32044;52.386;13.278;2023-02-11T13:47:26;49.78;;;29.00;;
46322;SDS011;32044;52.386;13.278;2023-02-11T13:49:57;47.00;;;26.85;;
46322;SDS011;32044;52.386;13.278;2023-02-11T13:52:26;48.90;;;28.27;;
46322;SDS011;32044;52.386;13.278;2023-02-11T13:54:57;45.40;;;27.55;;
46322;SDS011;32044;52.386;13.278;2023-02-11T13:57:35;46.38;;;26.50;;
46322;SDS011;32044;52.386;13.278;2023-02-11T14:03:20;47.60;;;28.08;;
46322;SDS011;32044;52.386;13.278;2023-02-11T14:06:17;45.08;;;27.45;;
46322;SDS011;32044;52.386;13.278;2023-02-11T14:09:09;48.17;;;27.02;;
46322;SDS011;32044;52.386;13.278;2023-02-11T14:12:21;45.70;;;25.30;;
46322;SDS011;32044;52.386;13.278;2023-02-11T14:15:15;41.78;;;25.05;;
46322;SDS011;32044;52.386;13.278;2023-02-11T14:17:44;44.38;;;24.85;;
46322;SDS011;32044;52.386;13.278;2023-02-11T14:20:31;44.85;;;25.15;;
46322;SDS011;32044;52.386;13.278;2023-02-11T14:23:01;44.97;;;25.75;;
46322;SDS011;32044;52.386;13.278;2023-02-11T14:25:29;39.63;;;24.55;;
46322;SDS011;32044;52.386;13.278;2023-02-11T14:27:59;43.75;;;24.05;;
46322;SDS011;32044;52.386;13.278;2023-02-11T14:30:43;40.83;;;23.80;;
46322;SDS011;32044;52.386;13.278;2023-02-11T14:33:17;42.88;;;24.35;;
46322;SDS011;32044;52.386;13.278;2023-02-11T14:35:53;38.58;;;24.13;;
46322;SDS011;32044;52.386;13.278;2023-02-11T14:38:30;39.45;;;22.95;;
46322;SDS011;32044;52.386;13.278;2023-02-11T14:41:06;38.67;;;24.02;;
46322;SDS011;32044;52.386;13.278;2023-02-11T14:43:37;42.72;;;24.13;;
46322;SDS011;32044;52.386;13.278;2023-02-11T14:46:08;39.40;;;22.00;;
46322;SDS011;32044;52.386;13.278;2023-02-11T14:48:36;36.92;;;24.08;;
46322;SDS011;32044;52.386;13.278;2023-02-11T14:51:06;42.05;;;25.20;;
46322;SDS011;32044;52.386;13.278;2023-02-11T14:53:35;37.55;;;23.58;;
46322;SDS011;32044;52.386;13.278;2023-02-11T14:56:06;40.22;;;23.50;;
46322;SDS011;32044;52.386;13.278;2023-02-11T14:58:44;39.92;;;23.23;;